sensor_id;sensor_type;location;lat;lon;timestamp;P1;durP1;ratioP1;P2;durP2;ratioP2
42124;SDS011;27787;44.594;11.046;2024-01-15T00:01:49;77.40;;;30.13;;
42124;SDS011;27787;44.594;11.046;2024-01-15T00:04:39;69.97;;;27.00;;
42124;SDS011;27787;44.594;11.046;2024-01-15T00:07:24;68.68;;;27.35;;
42124;SDS011;27787;44.594;11.046;2024-01-15T00:10:08;70.32;;;27.63;;
42124;SDS011;27787;44.594;11.046;2024-01-15T00:12:53;79.30;;;28.95;;
42124;SDS011;27787;44.594;11.046;2024-01-15T00:15:37;69.70;;;28.55;;
42124;SDS011;27787;44.594;11.046;2024-01-15T00:18:21;69.78;;;27.90;;
42124;SDS011;27787;44.594;11.046;2024-01-15T00:21:06;69.95;;;29.23;;
42124;SDS011;27787;44.594;11.046;2024-01-15T00:23:50;67.70;;;27.48;;
42124;SDS011;27787;44.594;11.046;2024-01-15T00:26:35;71.97;;;28.48;;
42124;SDS011;27787;44.594;11.046;2024-01-15T00:29:19;74.22;;;27.50;;
42124;SDS011;27787;44.594;11.046;2024-01-15T00:32:03;76.88;;;30.50;;
42124;SDS011;27787;44.594;11.046;2024-01-15T00:34:48;73.22;;;30.70;;
42124;SDS011;27787;44.594;11.046;2024-01-15T00:37:31;78.35;;;30.00;;
42124;SDS011;27787;44.594;11.046;2024-01-15T00:40:15;66.72;;;26.55;;
42124;SDS011;27787;44.594;11.046;2024-01-15T00:43:00;74.20;;;29.55;;
42124;SDS011;27787;44.594;11.046;2024-01-15T00:45:44;71.82;;;28.25;;
42124;SDS011;27787;44.594;11.046;2024-01-15T00:48:29;73.43;;;29.85;;
42124;SDS011;27787;44.594;11.046;2024-01-15T00:51:13;67.15;;;28.20;;
42124;SDS011;27787;44.594;11.046;2024-01-15T00:53:57;66.05;;;26.70;;
42124;SDS011;27787;44.594;11.046;2024-01-15T00:56:41;58.95;;;26.30;;
42124;SDS011;27787;44.594;11.046;2024-01-15T00:59:26;62.67;;;25.42;;
42124;SDS011;27787;44.594;11.046;2024-01-15T01:02:09;71.65;;;26.20;;
42124;SDS011;27787;44.594;11.046;2024-01-15T01:04:54;71.00;;;26.33;;
42124;SDS011;27787;44.594;11.046;2024-01-15T01:07:38;66.50;;;25.83;;
42124;SDS011;27787;44.594;11.046;2024-01-15T01:10:23;56.47;;;25.98;;
42124;SDS011;27787;44.594;11.046;2024-01-15T01:13:08;60.97;;;28.55;;
42124;SDS011;27787;44.594;11.046;2024-01-15T01:15:52;71.25;;;27.75;;
42124;SDS011;27787;44.594;11.046;2024-01-15T01:18:36;69.43;;;29.75;;
42124;SDS011;27787;44.594;11.046;2024-01-15T01:21:20;61.17;;;26.48;;
42124;SDS011;27787;44.594;11.046;2024-01-15T01:24:04;60.47;;;26.67;;
42124;SDS011;27787;44.594;11.046;2024-01-15T01:26:49;56.80;;;26.15;;
42124;SDS011;27787;44.594;11.046;2024-01-15T01:29:33;55.30;;;24.90;;
42124;SDS011;27787;44.594;11.046;2024-01-15T01:32:17;56.20;;;23.83;;
42124;SDS011;27787;44.594;11.046;2024-01-15T01:35:01;53.33;;;24.48;;
42124;SDS011;27787;44.594;11.046;2024-01-15T01:37:46;58.92;;;24.40;;
42124;SDS011;27787;44.594;11.046;2024-01-15T01:40:30;57.05;;;23.17;;
42124;SDS011;27787;44.594;11.046;2024-01-15T01:43:14;55.50;;;25.15;;
42124;SDS011;27787;44.594;11.046;2024-01-15T01:46:00;50.88;;;23.27;;
42124;SDS011;27787;44.594;11.046;2024-01-15T01:48:45;52.33;;;23.25;;
42124;SDS011;27787;44.594;11.046;2024-01-15T01:51:29;60.47;;;22.55;;
42124;SDS011;27787;44.594;11.046;2024-01-15T01:54:14;53.97;;;25.13;;
42124;SDS011;27787;44.594;11.046;2024-01-15T01:56:58;56.75;;;24.13;;
42124;SDS011;27787;44.594;11.046;2024-01-15T01:59:43;53.53;;;24.13;;
42124;SDS011;27787;44.594;11.046;2024-01-15T02:02:27;62.53;;;25.27;;
42124;SDS011;27787;44.594;11.046;2024-01-15T02:05:12;50.50;;;23.45;;
42124;SDS011;27787;44.594;11.046;2024-01-15T02:10:42;55.25;;;23.23;;
42124;SDS011;27787;44.594;11.046;2024-01-15T02:13:26;62.47;;;25.27;;
42124;SDS011;27787;44.594;11.046;2024-01-15T02:16:10;62.83;;;26.52;;
42124;SDS011;27787;44.594;11.046;2024-01-15T02:18:55;57.50;;;25.38;;
42124;SDS011;27787;44.594;11.046;2024-01-15T02:21:39;59.72;;;25.65;;
42124;SDS011;27787;44.594;11.046;2024-01-15T02:24:23;54.58;;;23.77;;
42124;SDS011;27787;44.594;11.046;2024-01-15T02:27:08;60.20;;;26.25;;
42124;SDS011;27787;44.594;11.046;2024-01-15T02:29:52;64.57;;;25.23;;
42124;SDS011;27787;44.594;11.046;2024-01-15T02:32:38;58.43;;;26.83;;
42124;SDS011;27787;44.594;11.046;2024-01-15T02:35:22;61.15;;;25.50;;
42124;SDS011;27787;44.594;11.046;2024-01-15T02:38:06;56.90;;;26.10;;
42124;SDS011;27787;44.594;11.046;2024-01-15T02:40:51;53.13;;;23.75;;
42124;SDS011;27787;44.594;11.046;2024-01-15T02:43:35;57.20;;;22.90;;
42124;SDS011;27787;44.594;11.046;2024-01-15T02:46:19;48.88;;;23.20;;
42124;SDS011;27787;44.594;11.046;2024-01-15T02:49:04;54.60;;;24.42;;
42124;SDS011;27787;44.594;11.046;2024-01-15T02:51:48;47.78;;;24.25;;
42124;SDS011;27787;44.594;11.046;2024-01-15T02:54:32;44.67;;;21.77;;
42124;SDS011;27787;44.594;11.046;2024-01-15T02:57:15;47.13;;;21.73;;
42124;SDS011;27787;44.594;11.046;2024-01-15T02:59:59;46.92;;;21.63;;
42124;SDS011;27787;44.594;11.046;2024-01-15T03:02:44;44.50;;;20.95;;
42124;SDS011;27787;44.594;11.046;2024-01-15T03:05:28;45.78;;;21.95;;
42124;SDS011;27787;44.594;11.046;2024-01-15T03:08:12;44.17;;;21.30;;
42124;SDS011;27787;44.594;11.046;2024-01-15T03:10:57;44.50;;;22.10;;
42124;SDS011;27787;44.594;11.046;2024-01-15T03:13:41;44.30;;;20.80;;
42124;SDS011;27787;44.594;11.046;2024-01-15T03:16:25;48.08;;;20.95;;
42124;SDS011;27787;44.594;11.046;2024-01-15T03:19:10;46.90;;;22.25;;
42124;SDS011;27787;44.594;11.046;2024-01-15T03:21:54;48.30;;;21.25;;
42124;SDS011;27787;44.594;11.046;2024-01-15T03:24:38;48.55;;;22.10;;
42124;SDS011;27787;44.594;11.046;2024-01-15T03:27:23;48.58;;;22.10;;
42124;SDS011;27787;44.594;11.046;2024-01-15T03:30:07;51.70;;;23.20;;
42124;SDS011;27787;44.594;11.046;2024-01-15T03:32:52;51.75;;;24.17;;
42124;SDS011;27787;44.594;11.046;2024-01-15T03:35:36;56.67;;;24.73;;
42124;SDS011;27787;44.594;11.046;2024-01-15T03:38:20;62.03;;;25.77;;
42124;SDS011;27787;44.594;11.046;2024-01-15T03:41:04;56.25;;;25.17;;
42124;SDS011;27787;44.594;11.046;2024-01-15T03:43:48;59.22;;;26.15;;
42124;SDS011;27787;44.594;11.046;2024-01-15T03:46:32;60.58;;;26.48;;
42124;SDS011;27787;44.594;11.046;2024-01-15T03:49:16;59.80;;;25.60;;
42124;SDS011;27787;44.594;11.046;2024-01-15T03:52:01;61.30;;;27.52;;
42124;SDS011;27787;44.594;11.046;2024-01-15T03:54:45;56.40;;;24.20;;
42124;SDS011;27787;44.594;11.046;2024-01-15T03:57:29;63.08;;;28.27;;
42124;SDS011;27787;44.594;11.046;2024-01-15T04:00:14;66.43;;;29.45;;
42124;SDS011;27787;44.594;11.046;2024-01-15T04:03:01;69.55;;;29.83;;
42124;SDS011;27787;44.594;11.046;2024-01-15T04:05:45;66.85;;;30.23;;
42124;SDS011;27787;44.594;11.046;2024-01-15T04:08:29;67.35;;;30.95;;
42124;SDS011;27787;44.594;11.046;2024-01-15T04:11:13;69.90;;;29.45;;
42124;SDS011;27787;44.594;11.046;2024-01-15T04:13:57;65.25;;;27.92;;
42124;SDS011;27787;44.594;11.046;2024-01-15T04:16:42;68.22;;;31.20;;
42124;SDS011;27787;44.594;11.046;2024-01-15T04:19:26;67.10;;;31.67;;
42124;SDS011;27787;44.594;11.046;2024-01-15T04:22:10;68.28;;;31.70;;
42124;SDS011;27787;44.594;11.046;2024-01-15T04:24:54;78.53;;;32.88;;
42124;SDS011;27787;44.594;11.046;2024-01-15T04:27:38;69.75;;;31.15;;
42124;SDS011;27787;44.594;11.046;2024-01-15T04:30:22;75.28;;;33.28;;
42124;SDS011;27787;44.594;11.046;2024-01-15T04:33:06;76.60;;;32.42;;
42124;SDS011;27787;44.594;11.046;2024-01-15T04:35:50;70.72;;;31.05;;
42124;SDS011;27787;44.594;11.046;2024-01-15T04:38:34;73.20;;;31.50;;
42124;SDS011;27787;44.594;11.046;2024-01-15T04:41:20;67.45;;;29.63;;
42124;SDS011;27787;44.594;11.046;2024-01-15T04:44:03;69.47;;;29.08;;
42124;SDS011;27787;44.594;11.046;2024-01-15T04:46:47;65.10;;;29.27;;
42124;SDS011;27787;44.594;11.046;2024-01-15T04:49:31;61.05;;;27.15;;
42124;SDS011;27787;44.594;11.046;2024-01-15T04:52:15;68.22;;;27.98;;
42124;SDS011;27787;44.594;11.046;2024-01-15T04:54:59;67.30;;;27.73;;
42124;SDS011;27787;44.594;11.046;2024-01-15T04:57:44;56.88;;;25.85;;
42124;SDS011;27787;44.594;11.046;2024-01-15T05:00:28;64.85;;;27.33;;
42124;SDS011;27787;44.594;11.046;2024-01-15T05:03:12;69.65;;;28.33;;
42124;SDS011;27787;44.594;11.046;2024-01-15T05:05:56;61.17;;;26.98;;
42124;SDS011;27787;44.594;11.046;2024-01-15T05:08:39;63.17;;;27.45;;
42124;SDS011;27787;44.594;11.046;2024-01-15T05:11:24;60.33;;;25.52;;
42124;SDS011;27787;44.594;11.046;2024-01-15T05:14:08;65.68;;;27.02;;
42124;SDS011;27787;44.594;11.046;2024-01-15T05:16:52;56.45;;;25.48;;
42124;SDS011;27787;44.594;11.046;2024-01-15T05:19:36;67.53;;;27.60;;
42124;SDS011;27787;44.594;11.046;2024-01-15T05:22:20;66.32;;;27.42;;
42124;SDS011;27787;44.594;11.046;2024-01-15T05:25:04;62.50;;;25.25;;
42124;SDS011;27787;44.594;11.046;2024-01-15T05:27:50;62.88;;;26.98;;
42124;SDS011;27787;44.594;11.046;2024-01-15T05:30:34;57.97;;;25.70;;
42124;SDS011;27787;44.594;11.046;2024-01-15T05:33:18;60.33;;;26.70;;
42124;SDS011;27787;44.594;11.046;2024-01-15T05:36:02;63.45;;;26.48;;
42124;SDS011;27787;44.594;11.046;2024-01-15T05:38:47;57.17;;;28.00;;
42124;SDS011;27787;44.594;11.046;2024-01-15T05:41:32;67.32;;;28.02;;
42124;SDS011;27787;44.594;11.046;2024-01-15T05:44:15;60.80;;;26.33;;
42124;SDS011;27787;44.594;11.046;2024-01-15T05:47:00;64.78;;;28.08;;
42124;SDS011;27787;44.594;11.046;2024-01-15T05:49:44;60.13;;;27.65;;
42124;SDS011;27787;44.594;11.046;2024-01-15T05:52:28;69.68;;;29.35;;
42124;SDS011;27787;44.594;11.046;2024-01-15T05:55:12;64.57;;;27.27;;
42124;SDS011;27787;44.594;11.046;2024-01-15T05:57:56;61.33;;;27.80;;
42124;SDS011;27787;44.594;11.046;2024-01-15T06:00:40;67.28;;;27.40;;
42124;SDS011;27787;44.594;11.046;2024-01-15T06:03:24;60.88;;;27.23;;
42124;SDS011;27787;44.594;11.046;2024-01-15T06:06:08;61.28;;;25.65;;
42124;SDS011;27787;44.594;11.046;2024-01-15T06:08:52;57.47;;;24.75;;
42124;SDS011;27787;44.594;11.046;2024-01-15T06:11:36;56.75;;;24.30;;
42124;SDS011;27787;44.594;11.046;2024-01-15T06:14:20;53.40;;;23.40;;
42124;SDS011;27787;44.594;11.046;2024-01-15T06:17:04;70.13;;;27.58;;
42124;SDS011;27787;44.594;11.046;2024-01-15T06:19:49;56.55;;;26.42;;
42124;SDS011;27787;44.594;11.046;2024-01-15T06:22:33;57.17;;;25.17;;
42124;SDS011;27787;44.594;11.046;2024-01-15T06:25:17;60.33;;;26.60;;
42124;SDS011;27787;44.594;11.046;2024-01-15T06:28:01;62.28;;;26.80;;
42124;SDS011;27787;44.594;11.046;2024-01-15T06:30:45;64.57;;;28.80;;
42124;SDS011;27787;44.594;11.046;2024-01-15T06:33:29;57.78;;;26.90;;
42124;SDS011;27787;44.594;11.046;2024-01-15T06:36:13;55.08;;;26.38;;
42124;SDS011;27787;44.594;11.046;2024-01-15T06:39:00;58.55;;;27.55;;
42124;SDS011;27787;44.594;11.046;2024-01-15T06:41:44;61.70;;;27.02;;
42124;SDS011;27787;44.594;11.046;2024-01-15T06:44:28;58.00;;;26.33;;
42124;SDS011;27787;44.594;11.046;2024-01-15T06:47:12;63.10;;;25.95;;
42124;SDS011;27787;44.594;11.046;2024-01-15T06:49:56;66.00;;;27.08;;
42124;SDS011;27787;44.594;11.046;2024-01-15T06:52:40;59.03;;;25.75;;
42124;SDS011;27787;44.594;11.046;2024-01-15T06:55:24;65.78;;;28.38;;
42124;SDS011;27787;44.594;11.046;2024-01-15T06:58:09;62.92;;;29.67;;
42124;SDS011;27787;44.594;11.046;2024-01-15T07:00:53;60.97;;;26.60;;
42124;SDS011;27787;44.594;11.046;2024-01-15T07:03:37;60.03;;;28.33;;
42124;SDS011;27787;44.594;11.046;2024-01-15T07:06:22;62.65;;;27.60;;
42124;SDS011;27787;44.594;11.046;2024-01-15T07:09:06;57.72;;;25.88;;
42124;SDS011;27787;44.594;11.046;2024-01-15T07:11:52;66.85;;;27.55;;
42124;SDS011;27787;44.594;11.046;2024-01-15T07:14:36;63.05;;;28.75;;
42124;SDS011;27787;44.594;11.046;2024-01-15T07:17:19;61.88;;;27.55;;
42124;SDS011;27787;44.594;11.046;2024-01-15T07:20:05;58.72;;;27.30;;
42124;SDS011;27787;44.594;11.046;2024-01-15T07:22:52;63.25;;;27.73;;
42124;SDS011;27787;44.594;11.046;2024-01-15T07:25:37;63.78;;;29.63;;
42124;SDS011;27787;44.594;11.046;2024-01-15T07:28:21;63.78;;;27.75;;
42124;SDS011;27787;44.594;11.046;2024-01-15T07:31:05;67.13;;;29.50;;
42124;SDS011;27787;44.594;11.046;2024-01-15T07:33:50;64.30;;;28.87;;
42124;SDS011;27787;44.594;11.046;2024-01-15T07:36:34;66.75;;;28.48;;
42124;SDS011;27787;44.594;11.046;2024-01-15T07:39:18;59.45;;;27.75;;
42124;SDS011;27787;44.594;11.046;2024-01-15T07:42:02;64.75;;;27.73;;
42124;SDS011;27787;44.594;11.046;2024-01-15T07:44:46;65.43;;;28.30;;
42124;SDS011;27787;44.594;11.046;2024-01-15T07:47:31;59.00;;;26.23;;
42124;SDS011;27787;44.594;11.046;2024-01-15T07:50:16;58.75;;;27.30;;
42124;SDS011;27787;44.594;11.046;2024-01-15T07:53:00;65.82;;;29.48;;
42124;SDS011;27787;44.594;11.046;2024-01-15T07:55:44;60.90;;;28.38;;
42124;SDS011;27787;44.594;11.046;2024-01-15T07:58:30;67.43;;;29.27;;
42124;SDS011;27787;44.594;11.046;2024-01-15T08:01:14;62.63;;;28.85;;
42124;SDS011;27787;44.594;11.046;2024-01-15T08:03:57;64.38;;;29.02;;
42124;SDS011;27787;44.594;11.046;2024-01-15T08:06:41;64.40;;;29.95;;
42124;SDS011;27787;44.594;11.046;2024-01-15T08:09:25;63.75;;;28.60;;
42124;SDS011;27787;44.594;11.046;2024-01-15T08:12:10;63.53;;;27.52;;
42124;SDS011;27787;44.594;11.046;2024-01-15T08:14:55;62.40;;;29.75;;
42124;SDS011;27787;44.594;11.046;2024-01-15T08:17:39;64.03;;;29.08;;
42124;SDS011;27787;44.594;11.046;2024-01-15T08:20:23;69.45;;;30.95;;
42124;SDS011;27787;44.594;11.046;2024-01-15T08:23:07;61.45;;;28.42;;
42124;SDS011;27787;44.594;11.046;2024-01-15T08:25:51;63.03;;;29.80;;
42124;SDS011;27787;44.594;11.046;2024-01-15T08:28:35;67.07;;;28.13;;
42124;SDS011;27787;44.594;11.046;2024-01-15T08:31:20;64.50;;;30.30;;
42124;SDS011;27787;44.594;11.046;2024-01-15T08:34:04;59.22;;;29.13;;
42124;SDS011;27787;44.594;11.046;2024-01-15T08:36:48;66.40;;;27.75;;
42124;SDS011;27787;44.594;11.046;2024-01-15T08:39:32;66.72;;;29.60;;
42124;SDS011;27787;44.594;11.046;2024-01-15T08:42:16;64.93;;;28.75;;
42124;SDS011;27787;44.594;11.046;2024-01-15T08:45:01;66.40;;;30.25;;
42124;SDS011;27787;44.594;11.046;2024-01-15T08:47:45;68.20;;;30.23;;
42124;SDS011;27787;44.594;11.046;2024-01-15T08:50:29;70.93;;;29.98;;
42124;SDS011;27787;44.594;11.046;2024-01-15T08:55:59;66.28;;;28.08;;
42124;SDS011;27787;44.594;11.046;2024-01-15T08:58:43;64.25;;;27.90;;
42124;SDS011;27787;44.594;11.046;2024-01-15T09:01:27;69.03;;;30.58;;
42124;SDS011;27787;44.594;11.046;2024-01-15T09:04:12;72.57;;;30.33;;
42124;SDS011;27787;44.594;11.046;2024-01-15T09:06:55;70.85;;;30.98;;
42124;SDS011;27787;44.594;11.046;2024-01-15T09:09:40;67.28;;;29.95;;
42124;SDS011;27787;44.594;11.046;2024-01-15T09:12:26;69.78;;;29.35;;
42124;SDS011;27787;44.594;11.046;2024-01-15T09:15:10;67.22;;;28.10;;
42124;SDS011;27787;44.594;11.046;2024-01-15T09:17:54;63.17;;;27.42;;
42124;SDS011;27787;44.594;11.046;2024-01-15T09:20:38;65.05;;;28.98;;
42124;SDS011;27787;44.594;11.046;2024-01-15T09:23:23;66.10;;;30.38;;
42124;SDS011;27787;44.594;11.046;2024-01-15T09:26:08;65.35;;;27.80;;
42124;SDS011;27787;44.594;11.046;2024-01-15T09:28:53;65.55;;;29.33;;
42124;SDS011;27787;44.594;11.046;2024-01-15T09:31:37;78.10;;;30.35;;
42124;SDS011;27787;44.594;11.046;2024-01-15T09:34:21;64.78;;;29.55;;
42124;SDS011;27787;44.594;11.046;2024-01-15T09:37:06;64.43;;;29.00;;
42124;SDS011;27787;44.594;11.046;2024-01-15T09:39:50;76.40;;;30.13;;
42124;SDS011;27787;44.594;11.046;2024-01-15T09:42:34;73.07;;;29.75;;
42124;SDS011;27787;44.594;11.046;2024-01-15T09:45:19;70.40;;;27.60;;
42124;SDS011;27787;44.594;11.046;2024-01-15T09:48:04;60.85;;;27.02;;
42124;SDS011;27787;44.594;11.046;2024-01-15T09:50:48;75.43;;;28.65;;
42124;SDS011;27787;44.594;11.046;2024-01-15T09:53:33;66.32;;;28.08;;
42124;SDS011;27787;44.594;11.046;2024-01-15T09:56:18;66.03;;;29.48;;
42124;SDS011;27787;44.594;11.046;2024-01-15T09:59:03;68.25;;;30.85;;
42124;SDS011;27787;44.594;11.046;2024-01-15T10:01:50;67.43;;;29.45;;
42124;SDS011;27787;44.594;11.046;2024-01-15T10:04:35;62.92;;;28.65;;
42124;SDS011;27787;44.594;11.046;2024-01-15T10:07:20;63.72;;;26.75;;
42124;SDS011;27787;44.594;11.046;2024-01-15T10:10:06;64.35;;;28.48;;
42124;SDS011;27787;44.594;11.046;2024-01-15T10:12:51;65.68;;;28.73;;
42124;SDS011;27787;44.594;11.046;2024-01-15T10:15:35;64.70;;;28.02;;
42124;SDS011;27787;44.594;11.046;2024-01-15T10:18:22;59.67;;;27.83;;
42124;SDS011;27787;44.594;11.046;2024-01-15T10:21:06;59.33;;;27.52;;
42124;SDS011;27787;44.594;11.046;2024-01-15T10:23:51;56.92;;;26.38;;
42124;SDS011;27787;44.594;11.046;2024-01-15T10:26:36;65.30;;;28.00;;
42124;SDS011;27787;44.594;11.046;2024-01-15T10:29:20;55.90;;;27.38;;
42124;SDS011;27787;44.594;11.046;2024-01-15T10:32:07;62.00;;;28.13;;
42124;SDS011;27787;44.594;11.046;2024-01-15T10:34:52;60.72;;;28.33;;
42124;SDS011;27787;44.594;11.046;2024-01-15T10:37:37;65.80;;;28.65;;
42124;SDS011;27787;44.594;11.046;2024-01-15T10:40:21;54.97;;;26.63;;
42124;SDS011;27787;44.594;11.046;2024-01-15T10:43:06;61.70;;;28.30;;
42124;SDS011;27787;44.594;11.046;2024-01-15T10:45:50;57.55;;;27.05;;
42124;SDS011;27787;44.594;11.046;2024-01-15T10:48:35;61.45;;;29.30;;
42124;SDS011;27787;44.594;11.046;2024-01-15T10:51:19;59.97;;;27.85;;
42124;SDS011;27787;44.594;11.046;2024-01-15T10:54:04;61.97;;;27.90;;
42124;SDS011;27787;44.594;11.046;2024-01-15T10:56:52;62.63;;;28.07;;
42124;SDS011;27787;44.594;11.046;2024-01-15T10:59:37;62.88;;;27.05;;
42124;SDS011;27787;44.594;11.046;2024-01-15T11:02:21;59.53;;;28.70;;
42124;SDS011;27787;44.594;11.046;2024-01-15T11:05:08;66.18;;;27.35;;
42124;SDS011;27787;44.594;11.046;2024-01-15T11:07:56;56.53;;;27.10;;
42124;SDS011;27787;44.594;11.046;2024-01-15T11:10:47;60.13;;;28.48;;
42124;SDS011;27787;44.594;11.046;2024-01-15T11:16:20;53.90;;;26.60;;
42124;SDS011;27787;44.594;11.046;2024-01-15T11:19:04;60.03;;;28.45;;
42124;SDS011;27787;44.594;11.046;2024-01-15T11:21:51;57.38;;;27.80;;
42124;SDS011;27787;44.594;11.046;2024-01-15T11:24:40;58.60;;;28.77;;
42124;SDS011;27787;44.594;11.046;2024-01-15T11:30:31;62.42;;;29.42;;
42124;SDS011;27787;44.594;11.046;2024-01-15T11:33:32;58.88;;;26.88;;
42124;SDS011;27787;44.594;11.046;2024-01-15T11:36:16;60.45;;;27.38;;
42124;SDS011;27787;44.594;11.046;2024-01-15T11:39:08;55.17;;;26.30;;
42124;SDS011;27787;44.594;11.046;2024-01-15T11:42:11;57.80;;;26.85;;
42124;SDS011;27787;44.594;11.046;2024-01-15T11:44:56;58.93;;;27.83;;
42124;SDS011;27787;44.594;11.046;2024-01-15T11:48:26;56.88;;;27.25;;
42124;SDS011;27787;44.594;11.046;2024-01-15T11:50:49;59.03;;;28.67;;
42124;SDS011;27787;44.594;11.046;2024-01-15T11:53:44;57.58;;;27.45;;
42124;SDS011;27787;44.594;11.046;2024-01-15T11:56:32;52.97;;;26.50;;
42124;SDS011;27787;44.594;11.046;2024-01-15T11:59:16;62.58;;;28.92;;
42124;SDS011;27787;44.594;11.046;2024-01-15T12:02:01;55.38;;;26.30;;
42124;SDS011;27787;44.594;11.046;2024-01-15T12:07:31;55.70;;;26.08;;
42124;SDS011;27787;44.594;11.046;2024-01-15T12:10:16;59.22;;;26.15;;
42124;SDS011;27787;44.594;11.046;2024-01-15T12:13:12;53.90;;;26.48;;
42124;SDS011;27787;44.594;11.046;2024-01-15T12:15:57;54.47;;;26.95;;
42124;SDS011;27787;44.594;11.046;2024-01-15T12:18:41;54.53;;;24.27;;
42124;SDS011;27787;44.594;11.046;2024-01-15T12:21:28;54.55;;;25.60;;
42124;SDS011;27787;44.594;11.046;2024-01-15T12:24:12;51.50;;;23.63;;
42124;SDS011;27787;44.594;11.046;2024-01-15T12:26:56;55.38;;;25.65;;
42124;SDS011;27787;44.594;11.046;2024-01-15T12:29:41;52.17;;;24.83;;
42124;SDS011;27787;44.594;11.046;2024-01-15T12:32:26;59.05;;;27.23;;
42124;SDS011;27787;44.594;11.046;2024-01-15T12:35:11;71.85;;;27.38;;
42124;SDS011;27787;44.594;11.046;2024-01-15T12:37:55;55.20;;;27.70;;
42124;SDS011;27787;44.594;11.046;2024-01-15T12:40:40;61.67;;;27.20;;
42124;SDS011;27787;44.594;11.046;2024-01-15T12:43:24;60.08;;;29.25;;
42124;SDS011;27787;44.594;11.046;2024-01-15T12:46:08;63.28;;;28.27;;
42124;SDS011;27787;44.594;11.046;2024-01-15T12:48:53;52.13;;;26.27;;
42124;SDS011;27787;44.594;11.046;2024-01-15T12:51:37;56.97;;;27.23;;
42124;SDS011;27787;44.594;11.046;2024-01-15T12:54:23;51.47;;;25.37;;
42124;SDS011;27787;44.594;11.046;2024-01-15T12:57:07;53.97;;;25.73;;
42124;SDS011;27787;44.594;11.046;2024-01-15T12:59:54;54.13;;;25.30;;
42124;SDS011;27787;44.594;11.046;2024-01-15T13:02:38;55.13;;;26.45;;
42124;SDS011;27787;44.594;11.046;2024-01-15T13:08:10;54.35;;;24.40;;
42124;SDS011;27787;44.594;11.046;2024-01-15T13:10:54;58.75;;;26.75;;
42124;SDS011;27787;44.594;11.046;2024-01-15T13:13:40;60.70;;;26.63;;
42124;SDS011;27787;44.594;11.046;2024-01-15T13:16:24;58.65;;;27.38;;
42124;SDS011;27787;44.594;11.046;2024-01-15T13:19:12;58.85;;;28.17;;
42124;SDS011;27787;44.594;11.046;2024-01-15T13:21:58;59.00;;;28.35;;
42124;SDS011;27787;44.594;11.046;2024-01-15T13:24:43;57.47;;;27.42;;
42124;SDS011;27787;44.594;11.046;2024-01-15T13:27:28;53.65;;;26.35;;
42124;SDS011;27787;44.594;11.046;2024-01-15T13:30:12;57.88;;;27.90;;
42124;SDS011;27787;44.594;11.046;2024-01-15T13:32:56;50.25;;;25.38;;
42124;SDS011;27787;44.594;11.046;2024-01-15T13:35:41;56.20;;;26.87;;
42124;SDS011;27787;44.594;11.046;2024-01-15T13:38:25;59.88;;;28.55;;
42124;SDS011;27787;44.594;11.046;2024-01-15T13:41:11;55.58;;;26.30;;
42124;SDS011;27787;44.594;11.046;2024-01-15T13:43:55;57.60;;;27.58;;
42124;SDS011;27787;44.594;11.046;2024-01-15T13:46:39;50.78;;;25.50;;
42124;SDS011;27787;44.594;11.046;2024-01-15T13:49:23;55.65;;;25.77;;
42124;SDS011;27787;44.594;11.046;2024-01-15T13:52:07;57.65;;;26.02;;
42124;SDS011;27787;44.594;11.046;2024-01-15T13:54:51;56.83;;;27.27;;
42124;SDS011;27787;44.594;11.046;2024-01-15T13:57:36;55.60;;;26.50;;
42124;SDS011;27787;44.594;11.046;2024-01-15T14:00:20;58.63;;;28.52;;
42124;SDS011;27787;44.594;11.046;2024-01-15T14:03:04;57.97;;;27.83;;
42124;SDS011;27787;44.594;11.046;2024-01-15T14:05:49;57.10;;;27.88;;
42124;SDS011;27787;44.594;11.046;2024-01-15T14:08:35;50.15;;;25.50;;
42124;SDS011;27787;44.594;11.046;2024-01-15T14:11:20;49.97;;;25.48;;
42124;SDS011;27787;44.594;11.046;2024-01-15T14:14:04;49.28;;;25.95;;
42124;SDS011;27787;44.594;11.046;2024-01-15T14:16:49;50.17;;;26.02;;
42124;SDS011;27787;44.594;11.046;2024-01-15T14:19:33;57.78;;;26.42;;
42124;SDS011;27787;44.594;11.046;2024-01-15T14:22:17;53.15;;;26.23;;
42124;SDS011;27787;44.594;11.046;2024-01-15T14:25:01;53.15;;;25.98;;
42124;SDS011;27787;44.594;11.046;2024-01-15T14:27:46;57.50;;;27.80;;
42124;SDS011;27787;44.594;11.046;2024-01-15T14:30:30;57.50;;;25.60;;
42124;SDS011;27787;44.594;11.046;2024-01-15T14:33:15;52.40;;;26.95;;
42124;SDS011;27787;44.594;11.046;2024-01-15T14:35:59;54.83;;;26.20;;
42124;SDS011;27787;44.594;11.046;2024-01-15T14:38:43;57.15;;;27.60;;
42124;SDS011;27787;44.594;11.046;2024-01-15T14:41:27;55.63;;;25.98;;
42124;SDS011;27787;44.594;11.046;2024-01-15T14:44:12;55.47;;;25.45;;
42124;SDS011;27787;44.594;11.046;2024-01-15T14:46:56;60.67;;;25.55;;
42124;SDS011;27787;44.594;11.046;2024-01-15T14:52:26;54.22;;;24.10;;
42124;SDS011;27787;44.594;11.046;2024-01-15T14:55:11;53.70;;;26.77;;
42124;SDS011;27787;44.594;11.046;2024-01-15T14:57:55;49.20;;;24.50;;
42124;SDS011;27787;44.594;11.046;2024-01-15T15:00:39;52.42;;;26.77;;
42124;SDS011;27787;44.594;11.046;2024-01-15T15:03:23;57.15;;;26.30;;
42124;SDS011;27787;44.594;11.046;2024-01-15T15:06:07;50.83;;;25.48;;
42124;SDS011;27787;44.594;11.046;2024-01-15T15:08:51;56.30;;;27.40;;
42124;SDS011;27787;44.594;11.046;2024-01-15T15:11:36;53.33;;;26.08;;
42124;SDS011;27787;44.594;11.046;2024-01-15T15:14:20;54.08;;;26.85;;
42124;SDS011;27787;44.594;11.046;2024-01-15T15:17:05;53.17;;;25.60;;
42124;SDS011;27787;44.594;11.046;2024-01-15T15:19:50;60.28;;;27.70;;
42124;SDS011;27787;44.594;11.046;2024-01-15T15:22:37;52.08;;;26.42;;
42124;SDS011;27787;44.594;11.046;2024-01-15T15:25:21;48.97;;;26.65;;
42124;SDS011;27787;44.594;11.046;2024-01-15T15:28:05;53.42;;;26.75;;
42124;SDS011;27787;44.594;11.046;2024-01-15T15:30:50;49.30;;;26.50;;
42124;SDS011;27787;44.594;11.046;2024-01-15T15:33:34;54.85;;;26.75;;
42124;SDS011;27787;44.594;11.046;2024-01-15T15:36:19;55.17;;;28.48;;
42124;SDS011;27787;44.594;11.046;2024-01-15T15:39:03;53.38;;;27.02;;
42124;SDS011;27787;44.594;11.046;2024-01-15T15:41:46;53.33;;;26.65;;
42124;SDS011;27787;44.594;11.046;2024-01-15T15:47:16;57.28;;;28.63;;
42124;SDS011;27787;44.594;11.046;2024-01-15T15:50:01;63.00;;;27.50;;
42124;SDS011;27787;44.594;11.046;2024-01-15T15:52:45;61.85;;;27.20;;
42124;SDS011;27787;44.594;11.046;2024-01-15T15:55:29;54.35;;;26.35;;
42124;SDS011;27787;44.594;11.046;2024-01-15T15:58:13;54.30;;;27.60;;
42124;SDS011;27787;44.594;11.046;2024-01-15T16:00:57;60.40;;;26.88;;
42124;SDS011;27787;44.594;11.046;2024-01-15T16:03:42;60.50;;;28.23;;
42124;SDS011;27787;44.594;11.046;2024-01-15T16:06:26;55.67;;;25.35;;
42124;SDS011;27787;44.594;11.046;2024-01-15T16:09:10;61.47;;;28.40;;
42124;SDS011;27787;44.594;11.046;2024-01-15T16:11:54;72.63;;;30.02;;